Montrose, AL

4:43 PM CDT on May 24, 2015 (GMT -0500)
Mobile Regional | | Change Station
CLOSE
Current Station
Airport
Location: Mobile,
Elevation: 220 ft
Nearby Weather Stations
Active Advisory: Coastal Hazard Statement

Elev 220 ft 30.69 °N, 88.25 °W | Updated 47 minutes ago

Mostly Cloudy
Mostly Cloudy
81 °F
Feels Like 87 °F
N
16
Wind Variable Wind from SE

Today
High -- | Low -- °F
--% Chance of Precip.
Yesterday
High -- | Low -- °F
Precip. -- in
5:52 AM 7:44 PM
Waxing Crescent, 42% visible
Pressure 30.09 in
Visibility 7.0 miles
Clouds Scattered Clouds 2000 ft
Mostly Cloudy 2600 ft
Mostly Cloudy 3200 ft
Heat Index 87 °F
Dew Point 75 °F
Humidity 82%
Rainfall 0.35 in
Snow Depth Not available.
UV 4 out of 12
Pollen 4.50 out of 12
Air Quality Not available.
Flu Activity Sporadic
METAR KMOB 242056Z 13014KT 7SM SCT020 BKN026CB BKN032 27/24 A3010 RMK AO2 PK WND 16026/2013 SLP187 CB ALQDS MOV N 60015 T02720239 58015 $

More Conditions Fewer Conditions

Pressure 30.09 in
Visibility 7.0 miles
Clouds Scattered Clouds 2000 ft
Mostly Cloudy 2600 ft
Mostly Cloudy 3200 ft
Heat Index 87 °F
Dew Point 75 °F
Humidity 82%
Rainfall 0.35 in
Snow Depth Not available.
UV 4 out of 12
Pollen 4.50 out of 12
Air Quality Not available.
Flu Activity Sporadic
METAR KMOB 242056Z 13014KT 7SM SCT020 BKN026CB BKN032 27/24 A3010 RMK AO2 PK WND 16026/2013 SLP187 CB ALQDS MOV N 60015 T02720239 58015 $

More Conditions Fewer Conditions

10-Day Weather Forecast

Almanac

Astronomy

May. 24, 2015 Rise Set
Actual Time
Civil Twilight
Nautical Twilight
Astronomical Twilight
Moon
Length of Visible Light
Length of Day
Tomorrow will be .
, % of the Moon is Illuminated

Today's Extremes

State Highs State Lows

Community

WunderPhotos

Upload Photos

1,823,876 photos uploaded!

WunderBlogs® & News

Nearby

Air Quality

  Air Quality AQ Index Pollutant
Not available.

Snow Depth

Station Depth Elevation

Earthquake Activity

City Distance Mag. Time & Date
Minimum magnitude displayed is 2.5.

Coastal Water Temperatures

Place Temperature

Stations

Nearby Weather Stations

Station Location Temp. Windchill Dew Point Humidity Wind Precip. Elev Updated Type
                   
Coastal Hazard Statement
Statement as of 3:43 PM CDT on May 24, 2015

... High rip current risk remains in effect through Tuesday
afternoon...

* timing... from this morning through Tuesday afternoon.

* Impacts... frequent life-threatening rip currents are expected.
The surf will be dangerous for all levels of swimmers.

Precautionary/preparedness actions...

There is a high risk of rip currents.

Rip currents are life-threatening to anyone entering the surf. If
you become caught in a rip current... Yell and wave your arms for
help and remain calm. Do not exhaust yourself and stay afloat
while waiting for help. If you have to swim out of a rip
current... swim parallel to shore and back toward the beach when
possible. Do not attempt to swim directly against a rip current
as you will tire quickly.